sensor_id;sensor_type;location;lat;lon;timestamp;temperature;humidity
2663;DHT22;49701;48.072;7.800;2023-08-07T00:02:26;13.90;99.90
2663;DHT22;49701;48.072;7.800;2023-08-07T00:04:51;13.90;99.90
2663;DHT22;49701;48.072;7.800;2023-08-07T00:07:17;13.90;99.90
2663;DHT22;49701;48.072;7.800;2023-08-07T00:09:43;13.80;99.90
2663;DHT22;49701;48.072;7.800;2023-08-07T00:12:09;13.80;99.90
2663;DHT22;49701;48.072;7.800;2023-08-07T00:14:35;13.80;99.90
2663;DHT22;49701;48.072;7.800;2023-08-07T00:17:00;13.80;99.90
2663;DHT22;49701;48.072;7.800;2023-08-07T00:19:26;13.80;99.90
2663;DHT22;49701;48.072;7.800;2023-08-07T00:21:52;13.70;99.90
2663;DHT22;49701;48.072;7.800;2023-08-07T00:24:17;13.70;99.90
2663;DHT22;49701;48.072;7.800;2023-08-07T00:26:43;13.70;99.90
2663;DHT22;49701;48.072;7.800;2023-08-07T00:29:08;13.70;99.90
2663;DHT22;49701;48.072;7.800;2023-08-07T00:31:34;13.70;99.90
2663;DHT22;49701;48.072;7.800;2023-08-07T00:34:00;13.70;99.90
2663;DHT22;49701;48.072;7.800;2023-08-07T00:36:26;13.70;99.90
2663;DHT22;49701;48.072;7.800;2023-08-07T00:38:54;13.70;99.90
2663;DHT22;49701;48.072;7.800;2023-08-07T00:41:20;13.60;99.90
2663;DHT22;49701;48.072;7.800;2023-08-07T00:43:45;13.60;99.90
2663;DHT22;49701;48.072;7.800;2023-08-07T00:46:11;13.60;99.90
2663;DHT22;49701;48.072;7.800;2023-08-07T00:48:37;13.60;99.90
2663;DHT22;49701;48.072;7.800;2023-08-07T00:51:04;13.60;99.90
2663;DHT22;49701;48.072;7.800;2023-08-07T00:53:31;13.60;99.90
2663;DHT22;49701;48.072;7.800;2023-08-07T00:55:56;13.60;99.90
2663;DHT22;49701;48.072;7.800;2023-08-07T00:58:23;13.60;99.90
2663;DHT22;49701;48.072;7.800;2023-08-07T01:00:49;13.60;99.90
2663;DHT22;49701;48.072;7.800;2023-08-07T01:03:15;13.60;99.90
2663;DHT22;49701;48.072;7.800;2023-08-07T01:05:40;13.60;99.90
2663;DHT22;49701;48.072;7.800;2023-08-07T01:08:06;13.60;99.90
2663;DHT22;49701;48.072;7.800;2023-08-07T01:13:27;13.50;99.90
2663;DHT22;49701;48.072;7.800;2023-08-07T01:15:55;13.50;99.90
2663;DHT22;49701;48.072;7.800;2023-08-07T01:18:24;13.40;99.90
2663;DHT22;49701;48.072;7.800;2023-08-07T01:20:49;13.40;99.90
2663;DHT22;49701;48.072;7.800;2023-08-07T01:23:15;13.40;99.90
2663;DHT22;49701;48.072;7.800;2023-08-07T01:25:41;13.40;99.90
2663;DHT22;49701;48.072;7.800;2023-08-07T01:28:12;13.40;99.90
2663;DHT22;49701;48.072;7.800;2023-08-07T01:30:42;13.40;99.90
2663;DHT22;49701;48.072;7.800;2023-08-07T01:35:42;13.40;99.90
2663;DHT22;49701;48.072;7.800;2023-08-07T01:38:08;13.40;99.90
2663;DHT22;49701;48.072;7.800;2023-08-07T01:40:34;13.40;99.90
2663;DHT22;49701;48.072;7.800;2023-08-07T01:43:01;13.40;99.90
2663;DHT22;49701;48.072;7.800;2023-08-07T01:45:28;13.30;99.90
2663;DHT22;49701;48.072;7.800;2023-08-07T01:47:54;13.40;99.90
2663;DHT22;49701;48.072;7.800;2023-08-07T01:50:20;13.40;99.90
2663;DHT22;49701;48.072;7.800;2023-08-07T01:52:46;13.40;99.90
2663;DHT22;49701;48.072;7.800;2023-08-07T01:55:13;13.30;99.90
2663;DHT22;49701;48.072;7.800;2023-08-07T01:57:38;13.30;99.90
2663;DHT22;49701;48.072;7.800;2023-08-07T02:00:04;13.30;99.90
2663;DHT22;49701;48.072;7.800;2023-08-07T02:02:40;13.30;99.90
2663;DHT22;49701;48.072;7.800;2023-08-07T02:05:06;13.30;99.90
2663;DHT22;49701;48.072;7.800;2023-08-07T02:07:31;13.30;99.90
2663;DHT22;49701;48.072;7.800;2023-08-07T02:09:57;13.20;99.90
2663;DHT22;49701;48.072;7.800;2023-08-07T02:12:25;13.20;99.90
2663;DHT22;49701;48.072;7.800;2023-08-07T02:14:51;13.10;99.90
2663;DHT22;49701;48.072;7.800;2023-08-07T02:17:19;13.10;99.90
2663;DHT22;49701;48.072;7.800;2023-08-07T02:19:45;13.00;99.90
2663;DHT22;49701;48.072;7.800;2023-08-07T02:22:10;12.90;99.90
2663;DHT22;49701;48.072;7.800;2023-08-07T02:24:36;12.90;99.90
2663;DHT22;49701;48.072;7.800;2023-08-07T02:27:02;12.90;99.90
2663;DHT22;49701;48.072;7.800;2023-08-07T02:29:27;12.80;99.90
2663;DHT22;49701;48.072;7.800;2023-08-07T02:31:53;12.80;99.90
2663;DHT22;49701;48.072;7.800;2023-08-07T02:34:18;12.80;99.90
2663;DHT22;49701;48.072;7.800;2023-08-07T02:36:44;12.80;99.90
2663;DHT22;49701;48.072;7.800;2023-08-07T02:39:09;12.80;99.90
2663;DHT22;49701;48.072;7.800;2023-08-07T02:41:35;12.80;99.90
2663;DHT22;49701;48.072;7.800;2023-08-07T02:44:00;12.80;99.90
2663;DHT22;49701;48.072;7.800;2023-08-07T02:46:26;12.80;99.90
2663;DHT22;49701;48.072;7.800;2023-08-07T02:48:51;12.80;99.90
2663;DHT22;49701;48.072;7.800;2023-08-07T02:51:19;12.80;99.90
2663;DHT22;49701;48.072;7.800;2023-08-07T02:53:44;12.80;99.90
2663;DHT22;49701;48.072;7.800;2023-08-07T02:56:10;12.80;99.90
2663;DHT22;49701;48.072;7.800;2023-08-07T02:58:36;12.80;99.90
2663;DHT22;49701;48.072;7.800;2023-08-07T03:01:04;12.80;99.90
2663;DHT22;49701;48.072;7.800;2023-08-07T03:03:33;12.80;99.90
2663;DHT22;49701;48.072;7.800;2023-08-07T03:05:58;12.80;99.90
2663;DHT22;49701;48.072;7.800;2023-08-07T03:08:24;12.80;99.90
2663;DHT22;49701;48.072;7.800;2023-08-07T03:10:53;12.80;99.90
2663;DHT22;49701;48.072;7.800;2023-08-07T03:13:23;12.80;99.90
2663;DHT22;49701;48.072;7.800;2023-08-07T03:15:48;12.80;99.90
2663;DHT22;49701;48.072;7.800;2023-08-07T03:18:15;12.80;99.90
2663;DHT22;49701;48.072;7.800;2023-08-07T03:20:41;12.80;99.90
2663;DHT22;49701;48.072;7.800;2023-08-07T03:23:09;12.80;99.90
2663;DHT22;49701;48.072;7.800;2023-08-07T03:25:34;12.80;99.90
2663;DHT22;49701;48.072;7.800;2023-08-07T03:28:00;12.90;99.90
2663;DHT22;49701;48.072;7.800;2023-08-07T03:30:25;12.90;99.90
2663;DHT22;49701;48.072;7.800;2023-08-07T03:32:51;12.90;99.90
2663;DHT22;49701;48.072;7.800;2023-08-07T03:35:18;12.90;99.90
2663;DHT22;49701;48.072;7.800;2023-08-07T03:37:43;12.90;99.90
2663;DHT22;49701;48.072;7.800;2023-08-07T03:40:09;12.90;99.90
2663;DHT22;49701;48.072;7.800;2023-08-07T03:42:35;12.90;99.90
2663;DHT22;49701;48.072;7.800;2023-08-07T03:45:01;13.00;99.90
2663;DHT22;49701;48.072;7.800;2023-08-07T03:47:27;13.00;99.90
2663;DHT22;49701;48.072;7.800;2023-08-07T03:49:52;13.00;99.90
2663;DHT22;49701;48.072;7.800;2023-08-07T03:52:18;13.00;99.90
2663;DHT22;49701;48.072;7.800;2023-08-07T03:54:44;13.00;99.90
2663;DHT22;49701;48.072;7.800;2023-08-07T03:57:09;13.00;99.90
2663;DHT22;49701;48.072;7.800;2023-08-07T03:59:37;13.00;99.90
2663;DHT22;49701;48.072;7.800;2023-08-07T04:02:03;13.10;99.90
2663;DHT22;49701;48.072;7.800;2023-08-07T04:04:29;13.10;99.90
2663;DHT22;49701;48.072;7.800;2023-08-07T04:06:54;13.10;99.90
2663;DHT22;49701;48.072;7.800;2023-08-07T04:09:20;13.10;99.90
2663;DHT22;49701;48.072;7.800;2023-08-07T04:11:45;13.10;99.90
2663;DHT22;49701;48.072;7.800;2023-08-07T04:14:11;13.10;99.90
2663;DHT22;49701;48.072;7.800;2023-08-07T04:16:37;13.20;99.90
2663;DHT22;49701;48.072;7.800;2023-08-07T04:19:02;13.20;99.90
2663;DHT22;49701;48.072;7.800;2023-08-07T04:21:29;13.30;99.90
2663;DHT22;49701;48.072;7.800;2023-08-07T04:23:55;13.30;99.90
2663;DHT22;49701;48.072;7.800;2023-08-07T04:26:20;13.30;99.90
2663;DHT22;49701;48.072;7.800;2023-08-07T04:28:46;13.40;99.90
2663;DHT22;49701;48.072;7.800;2023-08-07T04:31:11;13.40;99.90
2663;DHT22;49701;48.072;7.800;2023-08-07T04:33:38;13.40;99.90
2663;DHT22;49701;48.072;7.800;2023-08-07T04:36:03;13.40;99.90
2663;DHT22;49701;48.072;7.800;2023-08-07T04:38:29;13.50;99.90
2663;DHT22;49701;48.072;7.800;2023-08-07T04:40:54;13.40;99.90
2663;DHT22;49701;48.072;7.800;2023-08-07T04:43:20;13.40;99.90
2663;DHT22;49701;48.072;7.800;2023-08-07T04:45:46;13.40;99.90
2663;DHT22;49701;48.072;7.800;2023-08-07T04:48:11;13.50;99.90
2663;DHT22;49701;48.072;7.800;2023-08-07T04:50:37;13.40;99.90
2663;DHT22;49701;48.072;7.800;2023-08-07T04:53:04;13.50;99.90
2663;DHT22;49701;48.072;7.800;2023-08-07T04:55:30;13.50;99.90
2663;DHT22;49701;48.072;7.800;2023-08-07T04:57:56;13.50;99.90
2663;DHT22;49701;48.072;7.800;2023-08-07T05:00:22;13.60;99.90
2663;DHT22;49701;48.072;7.800;2023-08-07T05:02:48;13.50;99.90
2663;DHT22;49701;48.072;7.800;2023-08-07T05:05:15;13.50;99.90
2663;DHT22;49701;48.072;7.800;2023-08-07T05:07:41;13.50;99.90
2663;DHT22;49701;48.072;7.800;2023-08-07T05:10:08;13.60;99.90
2663;DHT22;49701;48.072;7.800;2023-08-07T05:12:34;13.50;99.90
2663;DHT22;49701;48.072;7.800;2023-08-07T05:15:00;13.50;99.90
2663;DHT22;49701;48.072;7.800;2023-08-07T05:17:26;13.50;99.90
2663;DHT22;49701;48.072;7.800;2023-08-07T05:19:51;13.50;99.90
2663;DHT22;49701;48.072;7.800;2023-08-07T05:22:17;13.50;99.90
2663;DHT22;49701;48.072;7.800;2023-08-07T05:24:43;13.50;99.90
2663;DHT22;49701;48.072;7.800;2023-08-07T05:27:10;13.50;99.90
2663;DHT22;49701;48.072;7.800;2023-08-07T05:29:36;13.50;99.90
2663;DHT22;49701;48.072;7.800;2023-08-07T05:32:13;13.50;99.90
2663;DHT22;49701;48.072;7.800;2023-08-07T05:34:39;13.40;99.90
2663;DHT22;49701;48.072;7.800;2023-08-07T05:37:05;13.50;99.90
2663;DHT22;49701;48.072;7.800;2023-08-07T05:39:31;13.50;99.90
2663;DHT22;49701;48.072;7.800;2023-08-07T05:41:57;13.50;99.90
2663;DHT22;49701;48.072;7.800;2023-08-07T05:44:26;13.50;99.90
2663;DHT22;49701;48.072;7.800;2023-08-07T05:46:52;13.50;99.90
2663;DHT22;49701;48.072;7.800;2023-08-07T05:49:17;13.50;99.90
2663;DHT22;49701;48.072;7.800;2023-08-07T05:51:43;13.50;99.90
2663;DHT22;49701;48.072;7.800;2023-08-07T05:54:09;13.60;99.90
2663;DHT22;49701;48.072;7.800;2023-08-07T05:56:37;13.60;99.90
2663;DHT22;49701;48.072;7.800;2023-08-07T05:59:02;13.60;99.90
2663;DHT22;49701;48.072;7.800;2023-08-07T06:01:28;13.70;99.90
2663;DHT22;49701;48.072;7.800;2023-08-07T06:04:00;13.70;99.90
2663;DHT22;49701;48.072;7.800;2023-08-07T06:06:26;13.70;99.90
2663;DHT22;49701;48.072;7.800;2023-08-07T06:08:56;13.70;99.90
2663;DHT22;49701;48.072;7.800;2023-08-07T06:11:22;13.80;99.90
2663;DHT22;49701;48.072;7.800;2023-08-07T06:13:48;13.80;99.90
2663;DHT22;49701;48.072;7.800;2023-08-07T06:16:14;13.80;99.90
2663;DHT22;49701;48.072;7.800;2023-08-07T06:18:39;13.90;99.90
2663;DHT22;49701;48.072;7.800;2023-08-07T06:21:05;14.00;99.90
2663;DHT22;49701;48.072;7.800;2023-08-07T06:23:36;14.10;99.90
2663;DHT22;49701;48.072;7.800;2023-08-07T06:26:02;14.10;99.90
2663;DHT22;49701;48.072;7.800;2023-08-07T06:28:33;14.20;99.90
2663;DHT22;49701;48.072;7.800;2023-08-07T06:31:06;14.20;99.90
2663;DHT22;49701;48.072;7.800;2023-08-07T06:33:32;14.20;99.90
2663;DHT22;49701;48.072;7.800;2023-08-07T06:36:02;14.20;99.90
2663;DHT22;49701;48.072;7.800;2023-08-07T06:38:28;14.20;99.90
2663;DHT22;49701;48.072;7.800;2023-08-07T06:40:54;14.20;99.90
2663;DHT22;49701;48.072;7.800;2023-08-07T06:43:19;14.20;99.90
2663;DHT22;49701;48.072;7.800;2023-08-07T06:45:58;14.20;99.90
2663;DHT22;49701;48.072;7.800;2023-08-07T06:48:24;14.20;99.90
2663;DHT22;49701;48.072;7.800;2023-08-07T06:50:50;14.20;99.90
2663;DHT22;49701;48.072;7.800;2023-08-07T06:53:16;14.20;99.90
2663;DHT22;49701;48.072;7.800;2023-08-07T06:55:42;14.20;99.90
2663;DHT22;49701;48.072;7.800;2023-08-07T06:58:09;14.20;99.90
2663;DHT22;49701;48.072;7.800;2023-08-07T07:00:35;14.20;99.90
2663;DHT22;49701;48.072;7.800;2023-08-07T07:03:02;14.30;99.90
2663;DHT22;49701;48.072;7.800;2023-08-07T07:05:27;14.40;99.90
2663;DHT22;49701;48.072;7.800;2023-08-07T07:07:53;14.40;99.90
2663;DHT22;49701;48.072;7.800;2023-08-07T07:10:20;14.50;99.90
2663;DHT22;49701;48.072;7.800;2023-08-07T07:12:46;14.50;99.90
2663;DHT22;49701;48.072;7.800;2023-08-07T07:15:12;14.60;99.90
2663;DHT22;49701;48.072;7.800;2023-08-07T07:17:38;14.60;99.90
2663;DHT22;49701;48.072;7.800;2023-08-07T07:20:04;14.70;99.90
2663;DHT22;49701;48.072;7.800;2023-08-07T07:22:30;14.70;99.90
2663;DHT22;49701;48.072;7.800;2023-08-07T07:24:56;14.70;99.90
2663;DHT22;49701;48.072;7.800;2023-08-07T07:27:21;14.60;99.90
2663;DHT22;49701;48.072;7.800;2023-08-07T07:29:51;14.70;99.90
2663;DHT22;49701;48.072;7.800;2023-08-07T07:32:17;14.70;99.90
2663;DHT22;49701;48.072;7.800;2023-08-07T07:34:43;14.70;99.90
2663;DHT22;49701;48.072;7.800;2023-08-07T07:37:09;14.80;99.90
2663;DHT22;49701;48.072;7.800;2023-08-07T07:39:35;14.80;99.90
2663;DHT22;49701;48.072;7.800;2023-08-07T07:42:01;14.80;99.90
2663;DHT22;49701;48.072;7.800;2023-08-07T07:44:27;14.90;99.90
2663;DHT22;49701;48.072;7.800;2023-08-07T07:46:53;14.90;99.90
2663;DHT22;49701;48.072;7.800;2023-08-07T07:49:18;14.90;99.90
2663;DHT22;49701;48.072;7.800;2023-08-07T07:51:44;14.90;99.90
2663;DHT22;49701;48.072;7.800;2023-08-07T07:54:11;14.90;99.90
2663;DHT22;49701;48.072;7.800;2023-08-07T07:56:37;15.00;99.90
2663;DHT22;49701;48.072;7.800;2023-08-07T07:59:03;15.00;99.90
2663;DHT22;49701;48.072;7.800;2023-08-07T08:01:28;15.10;99.90
2663;DHT22;49701;48.072;7.800;2023-08-07T08:03:54;15.20;99.90
2663;DHT22;49701;48.072;7.800;2023-08-07T08:06:20;15.30;99.90
2663;DHT22;49701;48.072;7.800;2023-08-07T08:08:45;15.30;99.90
2663;DHT22;49701;48.072;7.800;2023-08-07T08:11:11;15.30;99.90
2663;DHT22;49701;48.072;7.800;2023-08-07T08:13:37;15.30;99.90
2663;DHT22;49701;48.072;7.800;2023-08-07T08:16:05;15.20;99.90
2663;DHT22;49701;48.072;7.800;2023-08-07T08:18:31;15.30;99.90
2663;DHT22;49701;48.072;7.800;2023-08-07T08:20:57;15.20;99.90
2663;DHT22;49701;48.072;7.800;2023-08-07T08:23:22;15.10;99.90
2663;DHT22;49701;48.072;7.800;2023-08-07T08:25:48;15.10;99.90
2663;DHT22;49701;48.072;7.800;2023-08-07T08:28:14;15.00;99.90
2663;DHT22;49701;48.072;7.800;2023-08-07T08:30:41;15.00;99.90
2663;DHT22;49701;48.072;7.800;2023-08-07T08:33:07;15.00;99.90
2663;DHT22;49701;48.072;7.800;2023-08-07T08:35:34;14.90;99.90
2663;DHT22;49701;48.072;7.800;2023-08-07T08:38:00;14.90;99.90
2663;DHT22;49701;48.072;7.800;2023-08-07T08:40:26;15.00;99.90
2663;DHT22;49701;48.072;7.800;2023-08-07T08:42:53;15.10;99.90
2663;DHT22;49701;48.072;7.800;2023-08-07T08:45:24;15.30;99.90
2663;DHT22;49701;48.072;7.800;2023-08-07T08:47:55;15.50;99.90
2663;DHT22;49701;48.072;7.800;2023-08-07T08:50:23;15.60;99.90
2663;DHT22;49701;48.072;7.800;2023-08-07T08:52:51;15.60;99.90
2663;DHT22;49701;48.072;7.800;2023-08-07T08:55:20;15.70;99.90
2663;DHT22;49701;48.072;7.800;2023-08-07T08:57:49;15.90;99.90
2663;DHT22;49701;48.072;7.800;2023-08-07T09:00:19;16.30;99.90
2663;DHT22;49701;48.072;7.800;2023-08-07T09:02:50;16.70;99.90
2663;DHT22;49701;48.072;7.800;2023-08-07T09:05:18;17.00;99.90
2663;DHT22;49701;48.072;7.800;2023-08-07T09:07:47;17.00;99.90
2663;DHT22;49701;48.072;7.800;2023-08-07T09:10:15;17.10;99.90
2663;DHT22;49701;48.072;7.800;2023-08-07T09:12:53;17.30;99.90
2663;DHT22;49701;48.072;7.800;2023-08-07T09:15:21;17.70;99.90
2663;DHT22;49701;48.072;7.800;2023-08-07T09:17:49;18.10;99.90
2663;DHT22;49701;48.072;7.800;2023-08-07T09:20:16;18.60;99.90
2663;DHT22;49701;48.072;7.800;2023-08-07T09:22:42;18.80;99.90
2663;DHT22;49701;48.072;7.800;2023-08-07T09:25:08;19.10;99.90
2663;DHT22;49701;48.072;7.800;2023-08-07T09:27:36;19.40;99.90
2663;DHT22;49701;48.072;7.800;2023-08-07T09:30:03;19.40;99.90
2663;DHT22;49701;48.072;7.800;2023-08-07T09:32:30;19.40;99.90
2663;DHT22;49701;48.072;7.800;2023-08-07T09:34:55;19.70;99.90
2663;DHT22;49701;48.072;7.800;2023-08-07T09:37:22;20.10;99.90
2663;DHT22;49701;48.072;7.800;2023-08-07T09:39:48;20.20;99.90
2663;DHT22;49701;48.072;7.800;2023-08-07T09:42:14;20.30;99.90
2663;DHT22;49701;48.072;7.800;2023-08-07T09:44:43;20.40;99.90
2663;DHT22;49701;48.072;7.800;2023-08-07T09:47:13;20.40;99.90
2663;DHT22;49701;48.072;7.800;2023-08-07T09:49:39;20.50;99.90
2663;DHT22;49701;48.072;7.800;2023-08-07T09:52:06;20.70;99.90
2663;DHT22;49701;48.072;7.800;2023-08-07T09:54:33;20.50;99.90
2663;DHT22;49701;48.072;7.800;2023-08-07T09:56:59;20.00;99.90
2663;DHT22;49701;48.072;7.800;2023-08-07T09:59:26;19.30;99.90
2663;DHT22;49701;48.072;7.800;2023-08-07T10:01:51;18.70;99.90
2663;DHT22;49701;48.072;7.800;2023-08-07T10:04:18;18.40;99.90
2663;DHT22;49701;48.072;7.800;2023-08-07T10:06:44;18.20;99.90
2663;DHT22;49701;48.072;7.800;2023-08-07T10:09:11;18.00;99.90
2663;DHT22;49701;48.072;7.800;2023-08-07T10:11:38;17.90;99.90
2663;DHT22;49701;48.072;7.800;2023-08-07T10:14:05;17.80;99.90
2663;DHT22;49701;48.072;7.800;2023-08-07T10:16:31;17.80;99.90
2663;DHT22;49701;48.072;7.800;2023-08-07T10:18:58;17.70;99.90
2663;DHT22;49701;48.072;7.800;2023-08-07T10:21:24;17.70;99.90
2663;DHT22;49701;48.072;7.800;2023-08-07T10:23:53;17.80;99.90
2663;DHT22;49701;48.072;7.800;2023-08-07T10:26:21;17.90;99.90
2663;DHT22;49701;48.072;7.800;2023-08-07T10:28:50;18.10;99.90
2663;DHT22;49701;48.072;7.800;2023-08-07T10:31:17;18.60;99.90
2663;DHT22;49701;48.072;7.800;2023-08-07T10:33:43;18.70;99.90
2663;DHT22;49701;48.072;7.800;2023-08-07T10:36:10;19.00;99.90
2663;DHT22;49701;48.072;7.800;2023-08-07T10:38:36;19.10;99.90
2663;DHT22;49701;48.072;7.800;2023-08-07T10:41:08;19.70;99.90
2663;DHT22;49701;48.072;7.800;2023-08-07T10:43:39;20.20;99.90
2663;DHT22;49701;48.072;7.800;2023-08-07T10:46:08;20.60;99.90
2663;DHT22;49701;48.072;7.800;2023-08-07T10:48:48;20.60;99.90
2663;DHT22;49701;48.072;7.800;2023-08-07T10:51:18;20.30;99.90
2663;DHT22;49701;48.072;7.800;2023-08-07T10:53:48;19.90;99.90
2663;DHT22;49701;48.072;7.800;2023-08-07T10:58:42;19.70;99.90
2663;DHT22;49701;48.072;7.800;2023-08-07T11:04:11;19.40;99.90
2663;DHT22;49701;48.072;7.800;2023-08-07T11:06:38;19.30;99.90
2663;DHT22;49701;48.072;7.800;2023-08-07T11:09:09;19.30;99.90
2663;DHT22;49701;48.072;7.800;2023-08-07T11:11:46;19.60;99.90
2663;DHT22;49701;48.072;7.800;2023-08-07T11:14:16;19.90;99.90
2663;DHT22;49701;48.072;7.800;2023-08-07T11:16:43;20.30;99.90
2663;DHT22;49701;48.072;7.800;2023-08-07T11:19:10;20.60;99.90
2663;DHT22;49701;48.072;7.800;2023-08-07T11:21:37;20.70;99.90
2663;DHT22;49701;48.072;7.800;2023-08-07T11:24:03;21.20;99.90
2663;DHT22;49701;48.072;7.800;2023-08-07T11:26:28;22.00;99.90
2663;DHT22;49701;48.072;7.800;2023-08-07T11:28:54;22.40;99.90
2663;DHT22;49701;48.072;7.800;2023-08-07T11:31:20;22.50;99.90
2663;DHT22;49701;48.072;7.800;2023-08-07T11:33:47;22.40;99.90
2663;DHT22;49701;48.072;7.800;2023-08-07T11:36:15;22.00;99.90
2663;DHT22;49701;48.072;7.800;2023-08-07T11:38:41;21.60;99.90
2663;DHT22;49701;48.072;7.800;2023-08-07T11:41:10;21.20;99.90
2663;DHT22;49701;48.072;7.800;2023-08-07T11:43:36;21.00;99.90
2663;DHT22;49701;48.072;7.800;2023-08-07T11:46:06;20.90;99.90
2663;DHT22;49701;48.072;7.800;2023-08-07T11:48:33;20.80;99.90
2663;DHT22;49701;48.072;7.800;2023-08-07T11:50:59;20.80;99.90
2663;DHT22;49701;48.072;7.800;2023-08-07T11:53:26;20.90;99.90
2663;DHT22;49701;48.072;7.800;2023-08-07T11:55:55;20.90;99.90
2663;DHT22;49701;48.072;7.800;2023-08-07T11:58:21;20.80;99.90
2663;DHT22;49701;48.072;7.800;2023-08-07T12:00:47;20.80;99.90
2663;DHT22;49701;48.072;7.800;2023-08-07T12:03:29;20.90;99.90
2663;DHT22;49701;48.072;7.800;2023-08-07T12:05:56;21.40;99.90
2663;DHT22;49701;48.072;7.800;2023-08-07T12:08:22;22.00;99.90
2663;DHT22;49701;48.072;7.800;2023-08-07T12:10:51;22.40;99.90
2663;DHT22;49701;48.072;7.800;2023-08-07T12:13:27;22.40;99.90
2663;DHT22;49701;48.072;7.800;2023-08-07T12:15:53;22.10;99.90
2663;DHT22;49701;48.072;7.800;2023-08-07T12:18:19;21.80;99.90
2663;DHT22;49701;48.072;7.800;2023-08-07T12:20:46;21.70;99.90
2663;DHT22;49701;48.072;7.800;2023-08-07T12:23:15;21.80;99.90
2663;DHT22;49701;48.072;7.800;2023-08-07T12:25:42;22.20;99.90
2663;DHT22;49701;48.072;7.800;2023-08-07T12:28:08;22.60;99.90
2663;DHT22;49701;48.072;7.800;2023-08-07T12:30:34;22.70;99.90
2663;DHT22;49701;48.072;7.800;2023-08-07T12:33:00;22.70;99.90
2663;DHT22;49701;48.072;7.800;2023-08-07T12:35:25;22.90;99.90
2663;DHT22;49701;48.072;7.800;2023-08-07T12:37:51;23.20;99.90
2663;DHT22;49701;48.072;7.800;2023-08-07T12:40:17;23.20;99.90
2663;DHT22;49701;48.072;7.800;2023-08-07T12:42:46;22.90;99.90
2663;DHT22;49701;48.072;7.800;2023-08-07T12:45:11;22.70;99.90
2663;DHT22;49701;48.072;7.800;2023-08-07T12:47:37;23.10;99.90
2663;DHT22;49701;48.072;7.800;2023-08-07T12:50:03;23.60;99.90
2663;DHT22;49701;48.072;7.800;2023-08-07T12:52:29;24.30;99.90
2663;DHT22;49701;48.072;7.800;2023-08-07T12:54:55;25.30;98.80
2663;DHT22;49701;48.072;7.800;2023-08-07T12:57:20;25.60;96.40
2663;DHT22;49701;48.072;7.800;2023-08-07T12:59:46;25.00;96.60
2663;DHT22;49701;48.072;7.800;2023-08-07T13:02:11;24.30;96.50
2663;DHT22;49701;48.072;7.800;2023-08-07T13:04:37;23.70;97.00
2663;DHT22;49701;48.072;7.800;2023-08-07T13:07:02;23.20;98.20
2663;DHT22;49701;48.072;7.800;2023-08-07T13:09:28;23.00;98.80
2663;DHT22;49701;48.072;7.800;2023-08-07T13:11:56;23.10;99.30
2663;DHT22;49701;48.072;7.800;2023-08-07T13:14:21;23.60;99.30
2663;DHT22;49701;48.072;7.800;2023-08-07T13:16:47;24.20;97.80
2663;DHT22;49701;48.072;7.800;2023-08-07T13:19:14;24.00;97.70
2663;DHT22;49701;48.072;7.800;2023-08-07T13:21:40;23.60;98.00
2663;DHT22;49701;48.072;7.800;2023-08-07T13:24:06;23.40;97.80
2663;DHT22;49701;48.072;7.800;2023-08-07T13:26:31;23.40;97.70
2663;DHT22;49701;48.072;7.800;2023-08-07T13:28:57;23.00;98.50
2663;DHT22;49701;48.072;7.800;2023-08-07T13:31:23;22.50;99.10
2663;DHT22;49701;48.072;7.800;2023-08-07T13:33:48;22.50;98.50
2663;DHT22;49701;48.072;7.800;2023-08-07T13:36:14;22.80;98.70
2663;DHT22;49701;48.072;7.800;2023-08-07T13:38:39;23.10;98.60
2663;DHT22;49701;48.072;7.800;2023-08-07T13:41:06;23.40;98.40
2663;DHT22;49701;48.072;7.800;2023-08-07T13:43:32;23.40;98.50
2663;DHT22;49701;48.072;7.800;2023-08-07T13:45:58;23.70;99.00
2663;DHT22;49701;48.072;7.800;2023-08-07T13:48:23;24.30;97.30
2663;DHT22;49701;48.072;7.800;2023-08-07T13:50:52;24.70;96.00
2663;DHT22;49701;48.072;7.800;2023-08-07T13:53:18;24.70;95.90
2663;DHT22;49701;48.072;7.800;2023-08-07T13:55:46;24.80;95.10
2663;DHT22;49701;48.072;7.800;2023-08-07T13:58:13;24.60;95.10
2663;DHT22;49701;48.072;7.800;2023-08-07T14:00:42;24.40;94.80
2663;DHT22;49701;48.072;7.800;2023-08-07T14:03:10;24.20;94.70
2663;DHT22;49701;48.072;7.800;2023-08-07T14:05:38;23.80;95.10
2663;DHT22;49701;48.072;7.800;2023-08-07T14:08:03;23.60;95.20
2663;DHT22;49701;48.072;7.800;2023-08-07T14:10:29;23.60;95.70
2663;DHT22;49701;48.072;7.800;2023-08-07T14:12:55;23.80;96.10
2663;DHT22;49701;48.072;7.800;2023-08-07T14:15:21;24.00;96.00
2663;DHT22;49701;48.072;7.800;2023-08-07T14:17:46;24.00;96.30
2663;DHT22;49701;48.072;7.800;2023-08-07T14:20:12;24.40;95.80
2663;DHT22;49701;48.072;7.800;2023-08-07T14:22:38;24.80;94.50
2663;DHT22;49701;48.072;7.800;2023-08-07T14:25:05;25.10;94.30
2663;DHT22;49701;48.072;7.800;2023-08-07T14:27:31;25.60;94.50
2663;DHT22;49701;48.072;7.800;2023-08-07T14:29:57;25.80;93.70
2663;DHT22;49701;48.072;7.800;2023-08-07T14:32:22;26.00;93.90
2663;DHT22;49701;48.072;7.800;2023-08-07T14:34:48;26.20;93.60
2663;DHT22;49701;48.072;7.800;2023-08-07T14:37:14;25.80;93.20
2663;DHT22;49701;48.072;7.800;2023-08-07T14:39:40;25.30;93.20
2663;DHT22;49701;48.072;7.800;2023-08-07T14:42:06;24.70;94.30
2663;DHT22;49701;48.072;7.800;2023-08-07T14:44:33;24.30;95.00
2663;DHT22;49701;48.072;7.800;2023-08-07T14:46:58;24.10;94.70
2663;DHT22;49701;48.072;7.800;2023-08-07T14:49:24;23.90;95.20
2663;DHT22;49701;48.072;7.800;2023-08-07T14:51:50;24.30;94.50
2663;DHT22;49701;48.072;7.800;2023-08-07T14:54:16;24.30;94.90
2663;DHT22;49701;48.072;7.800;2023-08-07T14:56:41;24.30;95.10
2663;DHT22;49701;48.072;7.800;2023-08-07T14:59:07;24.10;95.20
2663;DHT22;49701;48.072;7.800;2023-08-07T15:01:32;23.70;94.90
2663;DHT22;49701;48.072;7.800;2023-08-07T15:03:58;23.40;95.20
2663;DHT22;49701;48.072;7.800;2023-08-07T15:06:24;23.10;95.70
2663;DHT22;49701;48.072;7.800;2023-08-07T15:08:49;22.80;96.10
2663;DHT22;49701;48.072;7.800;2023-08-07T15:11:15;22.60;96.60
2663;DHT22;49701;48.072;7.800;2023-08-07T15:13:41;22.50;97.30
2663;DHT22;49701;48.072;7.800;2023-08-07T15:16:07;22.40;97.50
2663;DHT22;49701;48.072;7.800;2023-08-07T15:18:32;22.30;98.00
2663;DHT22;49701;48.072;7.800;2023-08-07T15:20:58;22.10;98.20
2663;DHT22;49701;48.072;7.800;2023-08-07T15:23:26;22.00;98.40
2663;DHT22;49701;48.072;7.800;2023-08-07T15:25:52;22.00;98.50
2663;DHT22;49701;48.072;7.800;2023-08-07T15:28:17;22.10;98.30
2663;DHT22;49701;48.072;7.800;2023-08-07T15:30:47;22.10;98.40
2663;DHT22;49701;48.072;7.800;2023-08-07T15:33:12;22.10;98.60
2663;DHT22;49701;48.072;7.800;2023-08-07T15:35:38;21.90;98.90
2663;DHT22;49701;48.072;7.800;2023-08-07T15:38:03;21.80;99.40
2663;DHT22;49701;48.072;7.800;2023-08-07T15:40:29;21.80;99.00
2663;DHT22;49701;48.072;7.800;2023-08-07T15:42:54;22.00;99.40
2663;DHT22;49701;48.072;7.800;2023-08-07T15:45:20;22.00;99.20
2663;DHT22;49701;48.072;7.800;2023-08-07T15:47:46;21.90;98.90
2663;DHT22;49701;48.072;7.800;2023-08-07T15:50:12;21.70;99.30
2663;DHT22;49701;48.072;7.800;2023-08-07T15:52:38;21.70;99.60